createdAt,value
2022-09-10T00:01:35.700Z,2.55
2022-09-10T00:04:03.958Z,3.88
2022-09-10T00:06:33.364Z,5.63
2022-09-10T00:09:01.398Z,3.92
2022-09-10T00:11:32.654Z,3.55
2022-09-10T00:14:01.023Z,4.50
2022-09-10T00:16:29.167Z,3.28
2022-09-10T00:18:57.739Z,5.18
2022-09-10T00:21:24.987Z,4.38
2022-09-10T00:23:52.217Z,2.33
2022-09-10T00:26:22.681Z,3.05
2022-09-10T00:28:51.446Z,8.23
2022-09-10T00:31:19.768Z,2.80
2022-09-10T00:33:47.205Z,2.38
2022-09-10T00:36:23.305Z,4.25
2022-09-10T00:38:51.857Z,1.77
2022-09-10T00:41:21.394Z,5.05
2022-09-10T00:43:58.902Z,5.07
2022-09-10T00:46:26.183Z,2.13
2022-09-10T00:48:58.442Z,2.65
2022-09-10T00:51:31.269Z,1.60
2022-09-10T00:53:59.741Z,3.58
2022-09-10T00:56:28.565Z,2.75
2022-09-10T00:58:56.562Z,4.95
2022-09-10T01:01:23.943Z,3.45
2022-09-10T01:03:53.255Z,3.00
2022-09-10T01:06:20.492Z,4.25
2022-09-10T01:08:47.753Z,2.35
2022-09-10T01:11:46.865Z,2.53
2022-09-10T01:14:36.100Z,2.03
2022-09-10T01:17:32.256Z,2.78
2022-09-10T01:20:26.989Z,2.95
2022-09-10T01:23:29.133Z,1.88
2022-09-10T01:26:08.405Z,3.90
2022-09-10T01:29:01.403Z,2.30
2022-09-10T01:31:40.596Z,3.05
2022-09-10T01:34:19.546Z,2.38
2022-09-10T01:36:52.215Z,4.45
2022-09-10T01:39:21.838Z,3.78
2022-09-10T01:41:50.033Z,2.58
2022-09-10T01:44:49.487Z,4.68
2022-09-10T01:47:46.287Z,2.47
2022-09-10T01:50:21.898Z,2.60
2022-09-10T01:53:03.734Z,6.05
2022-09-10T01:55:55.843Z,4.32
2022-09-10T01:58:30.943Z,3.97
2022-09-10T02:01:28.226Z,2.85
2022-09-10T02:04:03.765Z,4.82
2022-09-10T02:06:36.599Z,3.88
2022-09-10T02:09:05.874Z,6.65
2022-09-10T02:11:53.591Z,4.97
2022-09-10T02:14:22.441Z,3.40
2022-09-10T02:17:01.038Z,5.43
2022-09-10T02:19:28.556Z,9.55
2022-09-10T02:21:57.733Z,4.10
2022-09-10T02:24:25.043Z,3.83
2022-09-10T02:26:52.364Z,2.72
2022-09-10T02:29:19.671Z,2.45
2022-09-10T02:31:47.657Z,2.28
2022-09-10T02:34:16.300Z,3.50
2022-09-10T02:36:43.771Z,2.53
2022-09-10T02:39:11.001Z,3.55
2022-09-10T02:41:41.663Z,3.50
2022-09-10T02:44:09.147Z,2.72
2022-09-10T02:46:36.421Z,6.13
2022-09-10T02:49:03.671Z,2.83
2022-09-10T02:51:31.021Z,5.07
2022-09-10T02:53:58.353Z,3.03
2022-09-10T02:56:25.699Z,4.78
2022-09-10T02:58:53.510Z,2.47
2022-09-10T03:01:22.809Z,3.15
2022-09-10T03:03:51.679Z,3.50
2022-09-10T03:06:19.621Z,3.33
2022-09-10T03:08:47.509Z,2.50
2022-09-10T03:11:16.920Z,7.07
2022-09-10T03:13:46.280Z,5.20
2022-09-10T03:16:14.021Z,2.80
2022-09-10T03:18:42.256Z,4.03
2022-09-10T03:21:18.485Z,4.03
2022-09-10T03:23:48.967Z,3.10
2022-09-10T03:26:17.998Z,3.88
2022-09-10T03:28:46.413Z,2.78
2022-09-10T03:31:14.124Z,7.85
2022-09-10T03:33:42.016Z,3.47
2022-09-10T03:36:13.462Z,5.15
2022-09-10T03:38:41.610Z,3.55
2022-09-10T03:41:09.281Z,3.65
2022-09-10T03:43:37.200Z,4.93
2022-09-10T03:46:04.605Z,3.00
2022-09-10T03:48:32.286Z,3.83
2022-09-10T03:50:59.865Z,3.38
2022-09-10T03:53:27.768Z,2.42
2022-09-10T03:55:55.918Z,3.75
2022-09-10T03:58:23.561Z,4.07
2022-09-10T04:00:50.820Z,3.00
2022-09-10T04:03:18.191Z,3.58
2022-09-10T04:05:45.468Z,3.70
2022-09-10T04:08:13.940Z,7.72
2022-09-10T04:10:42.806Z,3.47
2022-09-10T04:13:10.310Z,6.20
2022-09-10T04:15:37.901Z,7.07
2022-09-10T04:18:06.338Z,7.63
2022-09-10T04:20:34.545Z,7.22
2022-09-10T04:23:03.218Z,3.78
2022-09-10T04:25:30.458Z,5.35
2022-09-10T04:27:57.727Z,3.05
2022-09-10T04:30:25.126Z,2.72
2022-09-10T04:32:52.850Z,3.65
2022-09-10T04:35:20.658Z,3.85
2022-09-10T04:37:47.816Z,3.22
2022-09-10T04:40:15.160Z,5.85
2022-09-10T04:42:42.501Z,3.03
2022-09-10T04:45:10.280Z,2.20
2022-09-10T04:47:38.242Z,5.25
2022-09-10T04:50:06.681Z,3.70
2022-09-10T04:52:34.446Z,6.20
2022-09-10T04:55:01.898Z,5.40
2022-09-10T04:57:29.133Z,3.63
2022-09-10T04:59:57.318Z,3.42
2022-09-10T05:02:24.822Z,4.85
2022-09-10T05:04:52.105Z,2.08
2022-09-10T05:07:19.344Z,3.75
2022-09-10T05:09:46.643Z,4.40
2022-09-10T05:12:13.894Z,4.88
2022-09-10T05:14:41.206Z,4.20
2022-09-10T05:17:08.580Z,2.25
2022-09-10T05:19:35.936Z,5.10
2022-09-10T05:22:03.345Z,5.32
2022-09-10T05:24:30.607Z,5.05
2022-09-10T05:26:57.825Z,5.60
2022-09-10T05:29:25.120Z,5.32
2022-09-10T05:31:52.493Z,10.68
2022-09-10T05:34:20.592Z,3.40
2022-09-10T05:36:49.097Z,4.10
2022-09-10T05:39:16.637Z,3.30
2022-09-10T05:41:44.272Z,7.90
2022-09-10T05:44:11.551Z,5.43
2022-09-10T05:46:38.773Z,2.53
2022-09-10T05:49:06.000Z,2.17
2022-09-10T05:51:33.334Z,3.75
2022-09-10T05:54:00.543Z,4.28
2022-09-10T05:56:27.872Z,7.57
2022-09-10T05:58:55.172Z,3.47
2022-09-10T06:01:22.383Z,3.90
2022-09-10T06:03:51.229Z,3.70
2022-09-10T06:06:19.782Z,4.43
2022-09-10T06:08:52.065Z,8.07
2022-09-10T06:11:19.337Z,3.13
2022-09-10T06:13:46.837Z,3.55
2022-09-10T06:16:14.701Z,4.85
2022-09-10T06:18:42.658Z,4.68
2022-09-10T06:21:16.969Z,3.60
2022-09-10T06:23:45.178Z,7.15
2022-09-10T06:26:17.477Z,6.13
2022-09-10T06:28:44.956Z,7.53
2022-09-10T06:31:17.188Z,13.40
2022-09-10T06:33:45.260Z,8.57
2022-09-10T06:36:12.932Z,6.15
2022-09-10T06:38:41.301Z,7.70
2022-09-10T06:41:13.713Z,7.50
2022-09-10T06:43:41.917Z,6.53
2022-09-10T06:46:50.750Z,7.22
2022-09-10T06:49:03.640Z,12.90
2022-09-10T06:51:31.420Z,9.27
2022-09-10T06:53:58.772Z,6.80
2022-09-10T06:56:26.357Z,8.63
2022-09-10T06:58:55.796Z,13.32
2022-09-10T07:01:25.910Z,7.25
2022-09-10T07:03:57.938Z,9.43
2022-09-10T07:06:26.528Z,18.67
2022-09-10T07:08:58.516Z,11.98
2022-09-10T07:11:27.052Z,15.85
2022-09-10T07:13:54.524Z,7.80
2022-09-10T07:16:23.552Z,5.13
2022-09-10T07:18:58.258Z,4.13
2022-09-10T07:21:27.614Z,9.45
2022-09-10T07:24:01.423Z,16.77
2022-09-10T07:28:56.866Z,9.40
2022-09-10T07:31:34.161Z,14.40
2022-09-10T07:34:03.364Z,7.38
2022-09-10T07:36:31.470Z,8.85
2022-09-10T07:39:01.948Z,4.45
2022-09-10T07:41:30.209Z,7.32
2022-09-10T07:43:58.320Z,5.90
2022-09-10T07:46:28.158Z,5.72
2022-09-10T07:48:57.852Z,3.65
2022-09-10T07:51:27.213Z,9.38
2022-09-10T07:53:56.362Z,5.30
2022-09-10T07:56:24.392Z,7.43
2022-09-10T07:58:53.423Z,9.60
2022-09-10T08:01:20.987Z,3.67
2022-09-10T08:03:48.603Z,4.57
2022-09-10T08:06:16.653Z,3.72
2022-09-10T08:08:44.073Z,3.67
2022-09-10T08:11:18.017Z,4.57
2022-09-10T08:13:50.635Z,5.28
2022-09-10T08:16:25.737Z,4.97
2022-09-10T08:18:55.756Z,5.80
2022-09-10T08:21:24.962Z,5.28
2022-09-10T08:23:54.411Z,4.63
2022-09-10T08:26:23.956Z,6.35
2022-09-10T08:28:52.332Z,8.30
2022-09-10T08:31:19.958Z,7.18
2022-09-10T08:33:52.147Z,5.18
2022-09-10T08:36:21.973Z,5.68
2022-09-10T08:38:50.662Z,4.30
2022-09-10T08:41:59.824Z,4.93
2022-09-10T08:44:50.099Z,3.72
2022-09-10T08:47:35.938Z,3.13
2022-09-10T08:50:34.364Z,5.63
2022-09-10T08:53:28.395Z,4.57
2022-09-10T08:56:02.817Z,4.05
2022-09-10T08:58:48.064Z,3.22
2022-09-10T09:01:25.971Z,11.93
2022-09-10T09:03:57.470Z,6.03
2022-09-10T09:06:52.949Z,6.70
2022-09-10T09:09:22.194Z,7.75
2022-09-10T09:12:28.293Z,5.60
2022-09-10T09:15:09.131Z,5.13
2022-09-10T09:17:56.536Z,2.70
2022-09-10T09:20:34.300Z,4.97
2022-09-10T09:23:33.229Z,7.32
2022-09-10T09:26:20.754Z,5.20
2022-09-10T09:28:56.753Z,4.70
2022-09-10T09:31:28.849Z,3.28
2022-09-10T09:34:02.215Z,6.25
2022-09-10T09:36:45.982Z,4.22
2022-09-10T09:39:30.475Z,4.82
2022-09-10T09:42:21.238Z,2.95
2022-09-10T09:45:08.268Z,6.80
2022-09-10T09:47:35.535Z,4.45
2022-09-10T09:50:02.832Z,6.30
2022-09-10T09:52:32.113Z,12.18
2022-09-10T09:55:17.608Z,5.97
2022-09-10T09:57:44.989Z,6.43
2022-09-10T10:00:36.441Z,5.47
2022-09-10T10:03:15.952Z,4.65
2022-09-10T10:05:43.313Z,4.22
2022-09-10T10:08:31.156Z,6.25
2022-09-10T10:10:58.872Z,2.55
2022-09-10T10:13:35.214Z,6.07
2022-09-10T10:16:17.618Z,3.00
2022-09-10T10:18:45.939Z,6.95
2022-09-10T10:21:22.501Z,4.00
2022-09-10T10:23:50.152Z,5.18
2022-09-10T10:26:22.016Z,3.35
2022-09-10T10:28:59.334Z,5.13
2022-09-10T10:31:48.249Z,3.65
2022-09-10T10:34:39.584Z,2.97
2022-09-10T10:37:28.458Z,2.55
2022-09-10T10:40:11.007Z,4.30
2022-09-10T10:42:54.041Z,3.95
2022-09-10T10:45:39.024Z,4.95
2022-09-10T10:48:10.228Z,4.90
2022-09-10T10:50:52.228Z,3.22
2022-09-10T10:53:38.660Z,4.43
2022-09-10T10:56:13.782Z,4.10
2022-09-10T10:59:11.403Z,3.63
2022-09-10T11:01:48.857Z,2.65
2022-09-10T11:04:19.125Z,5.38
2022-09-10T11:07:04.916Z,4.88
2022-09-10T11:09:46.760Z,2.83
2022-09-10T11:12:28.642Z,2.03
2022-09-10T11:15:06.051Z,7.18
2022-09-10T11:17:43.317Z,4.80
2022-09-10T11:20:33.152Z,3.55
2022-09-10T11:23:29.908Z,4.18
2022-09-10T11:26:00.930Z,2.28
2022-09-10T11:28:44.278Z,6.28
2022-09-10T11:31:25.713Z,5.50
2022-09-10T11:34:02.693Z,6.00
2022-09-10T11:36:47.901Z,4.63
2022-09-10T11:39:39.388Z,5.03
2022-09-10T11:42:44.658Z,3.45
2022-09-10T11:45:36.617Z,11.02
2022-09-10T11:48:10.697Z,10.73
2022-09-10T11:50:47.377Z,6.15
2022-09-10T11:53:17.077Z,8.75
2022-09-10T11:56:06.089Z,8.40
2022-09-10T11:58:39.473Z,39.22
2022-09-10T12:01:23.813Z,7.97
2022-09-10T12:04:05.937Z,11.68
2022-09-10T12:07:19.082Z,10.43
2022-09-10T12:10:20.363Z,25.38
2022-09-10T12:12:53.573Z,69.38
2022-09-10T12:18:01.559Z,55.40
2022-09-10T12:20:42.778Z,25.35
2022-09-10T12:23:21.384Z,39.17
2022-09-10T12:26:00.453Z,51.65
2022-09-10T12:28:43.115Z,247.73
2022-09-10T12:31:13.121Z,222.32
2022-09-10T12:33:46.197Z,84.15
2022-09-10T12:36:35.003Z,61.35
2022-09-10T12:39:23.588Z,38.58
2022-09-10T12:41:50.793Z,23.25
2022-09-10T12:44:30.207Z,35.90
2022-09-10T12:47:16.154Z,10.40
2022-09-10T12:49:57.437Z,5.72
2022-09-10T12:52:58.954Z,6.10
2022-09-10T12:55:52.777Z,5.43
2022-09-10T12:58:55.617Z,3.45
2022-09-10T13:01:43.225Z,5.53
2022-09-10T13:04:33.192Z,5.45
2022-09-10T13:07:25.458Z,4.35
2022-09-10T13:10:18.495Z,3.80
2022-09-10T13:12:55.974Z,2.90
2022-09-10T13:15:26.393Z,7.53
2022-09-10T13:17:54.672Z,7.75
2022-09-10T13:20:22.066Z,4.25
2022-09-10T13:23:04.404Z,8.50
2022-09-10T13:25:41.899Z,7.10
2022-09-10T13:28:30.696Z,4.95
2022-09-10T13:31:01.878Z,13.30
2022-09-10T13:33:55.604Z,20.88
2022-09-10T13:36:53.677Z,10.90
2022-09-10T13:39:48.617Z,10.90
2022-09-10T13:42:52.435Z,8.13
2022-09-10T13:45:38.036Z,15.73
2022-09-10T13:48:25.254Z,7.28
2022-09-10T13:51:15.078Z,12.13
2022-09-10T13:53:47.072Z,11.23
2022-09-10T13:56:22.856Z,21.25
2022-09-10T13:59:02.329Z,12.85
2022-09-10T14:01:55.072Z,4.07
2022-09-10T14:04:36.797Z,5.50
2022-09-10T14:07:14.278Z,6.10
2022-09-10T14:09:48.036Z,11.00
2022-09-10T14:12:17.217Z,7.13
2022-09-10T14:14:50.653Z,13.07
2022-09-10T14:17:28.958Z,28.15
2022-09-10T14:20:01.516Z,19.13
2022-09-10T14:22:31.629Z,15.73
2022-09-10T14:25:01.952Z,29.92
2022-09-10T14:27:39.449Z,14.45
2022-09-10T14:30:18.912Z,8.15
2022-09-10T14:32:48.941Z,4.53
2022-09-10T14:35:43.260Z,3.55
2022-09-10T14:38:30.476Z,7.47
2022-09-10T14:41:11.318Z,5.40
2022-09-10T14:43:40.781Z,7.38
2022-09-10T14:46:46.276Z,6.18
2022-09-10T14:49:18.339Z,2.67
2022-09-10T14:51:45.698Z,2.60
2022-09-10T14:54:14.037Z,3.47
2022-09-10T14:56:46.920Z,6.03
2022-09-10T14:59:18.364Z,5.30
2022-09-10T15:01:48.620Z,5.88
2022-09-10T15:04:23.859Z,5.47
2022-09-10T15:06:55.907Z,7.70
2022-09-10T15:09:26.277Z,6.60
2022-09-10T15:11:55.294Z,3.50
2022-09-10T15:14:23.333Z,2.83
2022-09-10T15:16:52.479Z,9.75
2022-09-10T15:19:20.634Z,3.97
2022-09-10T15:21:48.489Z,5.18
2022-09-10T15:24:18.177Z,4.90
2022-09-10T15:26:46.117Z,6.75
2022-09-10T15:29:14.637Z,8.00
2022-09-10T15:31:43.887Z,8.73
2022-09-10T15:34:12.272Z,4.07
2022-09-10T15:36:40.801Z,4.28
2022-09-10T15:39:11.450Z,2.72
2022-09-10T15:41:43.797Z,9.18
2022-09-10T15:44:11.377Z,4.73
2022-09-10T15:46:45.583Z,5.22
2022-09-10T15:49:12.853Z,3.95
2022-09-10T15:51:41.575Z,3.70
2022-09-10T15:54:11.677Z,6.45
2022-09-10T15:56:39.717Z,3.97
2022-09-10T15:59:08.836Z,7.18
2022-09-10T16:01:38.576Z,5.53
2022-09-10T16:04:06.081Z,9.57
2022-09-10T16:06:36.617Z,8.55
2022-09-10T16:09:07.002Z,6.18
2022-09-10T16:11:36.573Z,8.30
2022-09-10T16:14:07.373Z,8.57
2022-09-10T16:16:37.680Z,8.60
2022-09-10T16:19:06.260Z,4.40
2022-09-10T16:21:38.393Z,4.05
2022-09-10T16:24:06.880Z,5.95
2022-09-10T16:26:38.063Z,4.50
2022-09-10T16:29:16.872Z,6.32
2022-09-10T16:31:47.656Z,4.38
2022-09-10T16:34:18.652Z,6.25
2022-09-10T16:36:49.263Z,7.15
2022-09-10T16:39:17.458Z,7.57
2022-09-10T16:41:46.985Z,5.20
2022-09-10T16:44:16.146Z,6.25
2022-09-10T16:46:44.112Z,4.88
2022-09-10T16:49:15.493Z,6.55
2022-09-10T16:51:44.085Z,6.93
2022-09-10T16:54:13.754Z,3.80
2022-09-10T16:56:43.399Z,64.30
2022-09-10T16:59:15.195Z,26.05
2022-09-10T17:01:44.720Z,53.70
2022-09-10T17:04:22.328Z,21.85
2022-09-10T17:06:52.146Z,15.93
2022-09-10T17:09:19.558Z,15.45
2022-09-10T17:11:47.236Z,20.10
2022-09-10T17:14:14.976Z,18.33
2022-09-10T17:16:43.693Z,20.45
2022-09-10T17:19:17.795Z,11.93
2022-09-10T17:21:51.360Z,25.15
2022-09-10T17:26:47.034Z,8.55
2022-09-10T17:29:16.825Z,12.07
2022-09-10T17:31:46.759Z,7.40
2022-09-10T17:34:15.617Z,8.70
2022-09-10T17:36:46.397Z,8.27
2022-09-10T17:39:14.739Z,6.82
2022-09-10T17:41:43.252Z,6.80
2022-09-10T17:44:11.657Z,7.38
2022-09-10T17:46:39.279Z,7.32
2022-09-10T17:49:07.044Z,5.60
2022-09-10T17:51:35.155Z,10.25
2022-09-10T17:54:05.582Z,6.78
2022-09-10T17:56:32.804Z,11.75
2022-09-10T17:59:02.814Z,6.88
2022-09-10T18:01:32.691Z,7.60
2022-09-10T18:04:00.565Z,10.55
2022-09-10T18:06:29.428Z,8.48
2022-09-10T18:09:03.819Z,6.90
2022-09-10T18:11:33.956Z,6.00
2022-09-10T18:14:01.594Z,31.98
2022-09-10T18:16:31.414Z,6.47
2022-09-10T18:19:04.596Z,4.30
2022-09-10T18:21:37.864Z,3.72
2022-09-10T18:24:09.546Z,6.93
2022-09-10T18:26:39.739Z,7.30
2022-09-10T18:29:10.744Z,8.18
2022-09-10T18:31:40.479Z,6.82
2022-09-10T18:34:11.547Z,4.65
2022-09-10T18:36:39.040Z,6.28
2022-09-10T18:39:10.919Z,13.65
2022-09-10T18:41:40.326Z,5.00
2022-09-10T18:44:20.891Z,4.70
2022-09-10T18:46:49.969Z,4.72
2022-09-10T18:49:21.267Z,5.20
2022-09-10T18:51:49.775Z,7.13
2022-09-10T18:54:17.895Z,4.68
2022-09-10T18:56:47.173Z,5.20
2022-09-10T18:59:16.657Z,4.90
2022-09-10T19:01:45.860Z,5.10
2022-09-10T19:04:20.248Z,20.73
2022-09-10T19:06:48.763Z,7.68
2022-09-10T19:09:19.189Z,6.03
2022-09-10T19:11:48.773Z,4.15
2022-09-10T19:14:16.416Z,9.65
2022-09-10T19:16:44.111Z,8.95
2022-09-10T19:19:16.758Z,4.53
2022-09-10T19:21:44.359Z,5.28
2022-09-10T19:24:12.084Z,5.70
2022-09-10T19:26:39.557Z,6.07
2022-09-10T19:29:06.879Z,7.10
2022-09-10T19:31:35.433Z,8.50
2022-09-10T19:34:06.142Z,10.00
2022-09-10T19:36:36.118Z,19.48
2022-09-10T19:39:07.915Z,7.35
2022-09-10T19:41:36.598Z,8.63
2022-09-10T19:44:04.359Z,8.90
2022-09-10T19:46:32.112Z,7.38
2022-09-10T19:49:00.654Z,8.10
2022-09-10T19:51:30.172Z,8.90
2022-09-10T19:53:57.650Z,10.38
2022-09-10T19:56:28.638Z,11.63
2022-09-10T19:58:56.576Z,11.43
2022-09-10T20:01:26.777Z,15.40
2022-09-10T20:03:55.726Z,10.48
2022-09-10T20:06:25.553Z,9.43
2022-09-10T20:08:53.644Z,10.02
2022-09-10T20:11:26.997Z,13.73
2022-09-10T20:13:58.759Z,9.20
2022-09-10T20:16:28.420Z,10.38
2022-09-10T20:18:56.251Z,10.68
2022-09-10T20:21:31.285Z,9.13
2022-09-10T20:23:59.433Z,8.02
2022-09-10T20:26:29.803Z,8.75
2022-09-10T20:28:59.657Z,10.65
2022-09-10T20:31:30.681Z,10.05
2022-09-10T20:34:03.697Z,9.75
2022-09-10T20:36:32.092Z,12.53
2022-09-10T20:38:59.646Z,9.38
2022-09-10T20:41:30.795Z,9.30
2022-09-10T20:44:00.012Z,11.85
2022-09-10T20:46:29.663Z,10.20
2022-09-10T20:49:05.206Z,11.68
2022-09-10T20:51:35.597Z,17.98
2022-09-10T20:54:03.569Z,17.13
2022-09-10T20:56:31.052Z,13.38
2022-09-10T20:58:58.912Z,13.43
2022-09-10T21:01:27.952Z,13.73
2022-09-10T21:03:58.692Z,10.88
2022-09-10T21:06:29.378Z,10.45
2022-09-10T21:08:57.296Z,10.55
2022-09-10T21:11:26.758Z,9.05
2022-09-10T21:13:57.106Z,8.65
2022-09-10T21:16:29.918Z,6.85
2022-09-10T21:19:01.024Z,7.28
2022-09-10T21:21:30.560Z,9.15
2022-09-10T21:23:59.810Z,5.93
2022-09-10T21:26:29.917Z,8.32
2022-09-10T21:28:59.533Z,6.65
2022-09-10T21:31:28.566Z,6.35
2022-09-10T21:34:01.908Z,9.77
2022-09-10T21:36:30.998Z,6.10
2022-09-10T21:39:00.513Z,7.78
2022-09-10T21:41:33.919Z,4.88
2022-09-10T21:44:03.200Z,7.05
2022-09-10T21:46:31.446Z,5.32
2022-09-10T21:48:59.920Z,7.78
2022-09-10T21:51:27.484Z,4.82
2022-09-10T21:53:56.849Z,5.50
2022-09-10T21:56:26.515Z,5.28
2022-09-10T21:58:54.724Z,5.82
2022-09-10T22:01:24.678Z,3.53
2022-09-10T22:03:55.167Z,4.63
2022-09-10T22:06:24.653Z,7.15
2022-09-10T22:09:00.692Z,4.18
2022-09-10T22:11:34.443Z,5.97
2022-09-10T22:14:05.249Z,5.32
2022-09-10T22:16:34.689Z,5.75
2022-09-10T22:19:06.005Z,4.00
2022-09-10T22:21:33.604Z,5.82
2022-09-10T22:24:00.864Z,5.28
2022-09-10T22:26:29.009Z,4.85
2022-09-10T22:29:01.846Z,5.20
2022-09-10T22:31:31.769Z,5.78
2022-09-10T22:34:11.364Z,7.70
2022-09-10T22:36:40.205Z,6.45
2022-09-10T22:39:13.048Z,5.22
2022-09-10T22:41:41.129Z,3.65
2022-09-10T22:44:09.245Z,6.45
2022-09-10T22:46:38.058Z,3.58
2022-09-10T22:49:06.171Z,6.18
2022-09-10T22:51:37.364Z,5.78
2022-09-10T22:54:06.404Z,7.03
2022-09-10T22:56:36.084Z,5.47
2022-09-10T22:59:04.384Z,4.70
2022-09-10T23:01:35.935Z,5.35
2022-09-10T23:04:04.704Z,5.30
2022-09-10T23:06:34.086Z,5.90
2022-09-10T23:09:28.113Z,6.18
2022-09-10T23:11:55.684Z,6.78
2022-09-10T23:14:23.124Z,4.25
2022-09-10T23:16:52.031Z,6.47
2022-09-10T23:19:24.444Z,5.97
2022-09-10T23:21:55.485Z,6.30
2022-09-10T23:24:24.964Z,5.30
2022-09-10T23:26:52.685Z,6.90
2022-09-10T23:29:23.351Z,6.85
2022-09-10T23:31:53.581Z,5.95
2022-09-10T23:34:21.804Z,5.13
2022-09-10T23:36:49.884Z,8.05
2022-09-10T23:39:25.053Z,4.85
2022-09-10T23:41:55.325Z,7.18
2022-09-10T23:44:22.771Z,6.80
2022-09-10T23:46:51.054Z,3.83
2022-09-10T23:49:18.764Z,9.43
2022-09-10T23:51:46.247Z,4.75
2022-09-10T23:54:13.727Z,4.45
2022-09-10T23:56:41.244Z,6.80
2022-09-10T23:59:09.364Z,7.55
